Tiffin, Iowa
Current Conditions -  °F | °C
As of 2:52 PM on Sunday 21 Dec 2014 (Local Time) from KIOW Reporting Station
Overcast Overcast  
Wind Chill: 34°   Ceiling: 3500
Heat Index: 41°   Visibility: 10mi
Dew Point: 36°   Wind: 12mph
Humidity: 82%   Direction: 160°SSE
Pressure: 29.93"   Gusts: NA
Location:  41.71°N, 91.66°W
Report Text: KIOW 212052Z AUTO 16010KT 10SM SCT016 OVC035 05/02 A2993 RMK AO2 SLP142 T00500022 56028
Loading
Personal Weather Stations






























Interactive Weather Map New forecast layout! Learn more

10-Day Weather Forecast

Advertisements
Track Severe Weather on mobile